^^
Saratoga-Weather Station Historical Data
Daily Summary for March 7, 2021 Units:  Both    English   Metric
Daily Weekly Monthly Yearly Custom
  High: Low: Average:
Temperature: 72.9 °F /  22.7 °C 53.4 °F /  11.9 °C 61.5 °F /  16.4 °C
Dew Point: 59.7 °F /  15.4 °C 52 °F /  11.1 °C 55.9 °F /  13.3 °C
Humidity: 96% 56% 83%
Wind Speed: 6.9mph /  11.1km/h - 1.2mph /  1.9km/h
Wind Gust: 12mph /  19.3km/h - -
Wind- - SSE
Pressure: 30 in /  1015.6 hPa 29.9 in /  1012.5 hPa -
Precipitation: 0 in /  0.0 mm    
Historical Graphs
 
 
Tabular Data for March 7, 2021
Time Temperature Dew Point Pressure Wind Wind Speed Wind Gust Humidity Rainfall Rate (Hourly) solar
00:03 61.2 °F /  16.2 °C 57.9 °F /  14.4 °C 29.9in /  1012.5hPa NE 0.9mph /  1.4km/h 2mph /  3.2km/h 89% 0in /  0.0mm 0 W/m2
00:08 61 °F /  16.1 °C 57.7 °F /  14.3 °C 29.9in /  1012.5hPa South 0.9mph /  1.4km/h 2mph /  3.2km/h 89% 0in /  0.0mm 0 W/m2
00:13 61 °F /  16.1 °C 57.7 °F /  14.3 °C 29.9in /  1012.9hPa Calm   1mph /  1.6km/h 89% 0in /  0.0mm 0 W/m2
00:18 60.6 °F /  15.9 °C 57.4 °F /  14.1 °C 29.9in /  1012.5hPa Calm   3mph /  4.8km/h 89% 0in /  0.0mm 0 W/m2
00:23 60.4 °F /  15.8 °C 57.2 °F /  14 °C 29.9in /  1012.5hPa West 2mph /  3.2km/h 4mph /  6.4km/h 89% 0in /  0.0mm 0 W/m2
00:28 60.3 °F /  15.7 °C 57.4 °F /  14.1 °C 29.9in /  1012.5hPa NW 0.9mph /  1.4km/h 4mph /  6.4km/h 90% 0in /  0.0mm 0 W/m2
00:33 60.3 °F /  15.7 °C 57 °F /  13.9 °C 29.9in /  1012.5hPa ESE 2mph /  3.2km/h 3mph /  4.8km/h 89% 0in /  0.0mm 0 W/m2
00:38 60.3 °F /  15.7 °C 57 °F /  13.9 °C 29.9in /  1012.5hPa Calm   4mph /  6.4km/h 89% 0in /  0.0mm 0 W/m2
00:43 60.1 °F /  15.6 °C 57.2 °F /  14 °C 29.9in /  1012.5hPa Calm   2mph /  3.2km/h 90% 0in /  0.0mm 0 W/m2
00:48 60.1 °F /  15.6 °C 57.2 °F /  14 °C 29.9in /  1012.5hPa SE 2mph /  3.2km/h 3mph /  4.8km/h 90% 0in /  0.0mm 0 W/m2
00:53 60.1 °F /  15.6 °C 57.2 °F /  14 °C 29.9in /  1012.5hPa Calm   2mph /  3.2km/h 90% 0in /  0.0mm 0 W/m2
00:58 60.1 °F /  15.6 °C 57.2 °F /  14 °C 29.9in /  1012.9hPa Calm   2mph /  3.2km/h 90% 0in /  0.0mm 0 W/m2
01:03 60.1 °F /  15.6 °C 57.2 °F /  14 °C 29.9in /  1012.9hPa ENE 0.9mph /  1.4km/h 1mph /  1.6km/h 90% 0in /  0.0mm 0 W/m2
01:08 59.9 °F /  15.5 °C 57 °F /  13.9 °C 29.9in /  1012.9hPa East 0.9mph /  1.4km/h 2mph /  3.2km/h 90% 0in /  0.0mm 0 W/m2
01:13 59.7 °F /  15.4 °C 56.8 °F /  13.8 °C 29.9in /  1012.9hPa East 0.9mph /  1.4km/h 3mph /  4.8km/h 90% 0in /  0.0mm 0 W/m2
01:18 59.5 °F /  15.3 °C 56.7 °F /  13.7 °C 29.9in /  1012.9hPa East 0.9mph /  1.4km/h 3mph /  4.8km/h 90% 0in /  0.0mm 0 W/m2
01:23 59.5 °F /  15.3 °C 56.8 °F /  13.8 °C 29.9in /  1012.9hPa East 0.9mph /  1.4km/h 1mph /  1.6km/h 91% 0in /  0.0mm 0 W/m2
01:28 59.2 °F /  15.1 °C 56.5 °F /  13.6 °C 29.9in /  1012.9hPa East 0.9mph /  1.4km/h 3mph /  4.8km/h 91% 0in /  0.0mm 0 W/m2
01:33 59 °F /  15 °C 56.3 °F /  13.5 °C 29.9in /  1012.9hPa East 2mph /  3.2km/h 2mph /  3.2km/h 91% 0in /  0.0mm 0 W/m2
01:38 58.8 °F /  14.9 °C 56.5 °F /  13.6 °C 29.9in /  1012.9hPa Calm   3mph /  4.8km/h 92% 0in /  0.0mm 0 W/m2
01:43 58.6 °F /  14.8 °C 56.3 °F /  13.5 °C 29.9in /  1012.9hPa Calm     92% 0in /  0.0mm 0 W/m2
01:48 58.5 °F /  14.7 °C 56.1 °F /  13.4 °C 29.9in /  1012.9hPa Calm   1mph /  1.6km/h 92% 0in /  0.0mm 0 W/m2
01:53 58.5 °F /  14.7 °C 56.1 °F /  13.4 °C 29.9in /  1012.9hPa Calm     92% 0in /  0.0mm 0 W/m2
01:58 58.3 °F /  14.6 °C 55.9 °F /  13.3 °C 29.9in /  1012.9hPa Calm     92% 0in /  0.0mm 0 W/m2
02:03 58.1 °F /  14.5 °C 55.8 °F /  13.2 °C 29.9in /  1012.9hPa Calm     92% 0in /  0.0mm 0 W/m2
02:08 57.9 °F /  14.4 °C 55.6 °F /  13.1 °C 29.9in /  1012.9hPa Calm     92% 0in /  0.0mm 0 W/m2
02:13 57.7 °F /  14.3 °C 55.4 °F /  13 °C 29.9in /  1012.9hPa Calm     92% 0in /  0.0mm 0 W/m2
02:18 57.6 °F /  14.2 °C 55.6 °F /  13.1 °C 29.9in /  1012.9hPa Calm     93% 0in /  0.0mm 0 W/m2
02:23 57.6 °F /  14.2 °C 55.6 °F /  13.1 °C 29.9in /  1012.9hPa Calm     93% 0in /  0.0mm 0 W/m2
02:28 57.4 °F /  14.1 °C 55.4 °F /  13 °C 29.9in /  1012.9hPa Calm     93% 0in /  0.0mm 0 W/m2
02:33 57.2 °F /  14 °C 55.2 °F /  12.9 °C 29.9in /  1012.9hPa Calm   1mph /  1.6km/h 93% 0in /  0.0mm 0 W/m2
02:38 57 °F /  13.9 °C 55 °F /  12.8 °C 29.9in /  1013.2hPa Calm     93% 0in /  0.0mm 0 W/m2
02:43 57 °F /  13.9 °C 55 °F /  12.8 °C 29.9in /  1013.2hPa East 0.9mph /  1.4km/h 1mph /  1.6km/h 93% 0in /  0.0mm 0 W/m2
02:48 57 °F /  13.9 °C 55.2 °F /  12.9 °C 29.9in /  1012.9hPa Calm   1mph /  1.6km/h 94% 0in /  0.0mm 0 W/m2
02:53 56.8 °F /  13.8 °C 55.2 °F /  12.9 °C 29.9in /  1013.2hPa Calm   2mph /  3.2km/h 94% 0in /  0.0mm 0 W/m2
02:58 57 °F /  13.9 °C 55.2 °F /  12.9 °C 29.9in /  1012.9hPa Calm     94% 0in /  0.0mm 0 W/m2
03:03 56.8 °F /  13.8 °C 55.2 °F /  12.9 °C 29.9in /  1013.2hPa Calm     94% 0in /  0.0mm 0 W/m2
03:08 56.8 °F /  13.8 °C 55.2 °F /  12.9 °C 29.9in /  1012.9hPa Calm     94% 0in /  0.0mm 0 W/m2
03:13 56.7 °F /  13.7 °C 55 °F /  12.8 °C 29.9in /  1012.9hPa Calm     94% 0in /  0.0mm 0 W/m2
03:18 56.5 °F /  13.6 °C 54.9 °F /  12.7 °C 29.9in /  1012.9hPa Calm     94% 0in /  0.0mm 0 W/m2
03:23 56.3 °F /  13.5 °C 54.7 °F /  12.6 °C 29.9in /  1012.9hPa Calm     94% 0in /  0.0mm 0 W/m2
03:28 56.1 °F /  13.4 °C 54.5 °F /  12.5 °C 29.9in /  1012.9hPa Calm     94% 0in /  0.0mm 0 W/m2
03:33 56.1 °F /  13.4 °C 54.5 °F /  12.5 °C 29.9in /  1012.9hPa Calm     94% 0in /  0.0mm 0 W/m2
03:38 55.9 °F /  13.3 °C 54.3 °F /  12.4 °C 29.9in /  1012.9hPa Calm     94% 0in /  0.0mm 0 W/m2
03:43 55.8 °F /  13.2 °C 54.1 °F /  12.3 °C 29.9in /  1013.2hPa Calm     94% 0in /  0.0mm 0 W/m2
03:48 55.8 °F /  13.2 °C 54.1 °F /  12.3 °C 29.9in /  1013.2hPa Calm     94% 0in /  0.0mm 0 W/m2
03:53 55.6 °F /  13.1 °C 54 °F /  12.2 °C 29.9in /  1012.9hPa Calm     94% 0in /  0.0mm 0 W/m2
03:58 55.6 °F /  13.1 °C 54 °F /  12.2 °C 29.9in /  1012.9hPa Calm     94% 0in /  0.0mm 0 W/m2
04:03 55.4 °F /  13 °C 53.8 °F /  12.1 °C 29.9in /  1012.9hPa Calm     94% 0in /  0.0mm 0 W/m2
04:08 55.2 °F /  12.9 °C 53.6 °F /  12 °C 29.9in /  1012.9hPa Calm     94% 0in /  0.0mm 0 W/m2
04:13 55 °F /  12.8 °C 53.4 °F /  11.9 °C 29.9in /  1012.9hPa Calm     94% 0in /  0.0mm 0 W/m2
04:18 55 °F /  12.8 °C 53.4 °F /  11.9 °C 29.9in /  1012.9hPa Calm     94% 0in /  0.0mm 0 W/m2
04:23 54.9 °F /  12.7 °C 53.2 °F /  11.8 °C 29.9in /  1012.9hPa Calm     94% 0in /  0.0mm 0 W/m2
04:28 54.7 °F /  12.6 °C 53.1 °F /  11.7 °C 29.9in /  1012.9hPa Calm     94% 0in /  0.0mm 0 W/m2
04:33 54.7 °F /  12.6 °C 53.1 °F /  11.7 °C 29.9in /  1012.9hPa Calm     94% 0in /  0.0mm 0 W/m2
04:38 54.5 °F /  12.5 °C 53.1 °F /  11.7 °C 29.9in /  1013.2hPa Calm     95% 0in /  0.0mm 0 W/m2
04:43 54.3 °F /  12.4 °C 52.9 °F /  11.6 °C 29.9in /  1013.2hPa Calm     95% 0in /  0.0mm 0 W/m2
04:48 54.1 °F /  12.3 °C 52.7 °F /  11.5 °C 29.9in /  1013.2hPa Calm     95% 0in /  0.0mm 0 W/m2
04:53 54.1 °F /  12.3 °C 52.7 °F /  11.5 °C 29.9in /  1013.2hPa Calm     95% 0in /  0.0mm 0 W/m2
04:58 54 °F /  12.2 °C 52.5 °F /  11.4 °C 29.9in /  1013.2hPa Calm     95% 0in /  0.0mm 0 W/m2
05:03 54 °F /  12.2 °C 52.5 °F /  11.4 °C 29.9in /  1013.2hPa Calm     95% 0in /  0.0mm 0 W/m2
05:08 54 °F /  12.2 °C 52.5 °F /  11.4 °C 29.9in /  1013.2hPa Calm     95% 0in /  0.0mm 0 W/m2
05:13 54 °F /  12.2 °C 52.5 °F /  11.4 °C 29.9in /  1013.2hPa Calm     95% 0in /  0.0mm 0 W/m2
05:18 53.8 °F /  12.1 °C 52.3 °F /  11.3 °C 29.9in /  1013.5hPa Calm     95% 0in /  0.0mm 0 W/m2
05:23 53.8 °F /  12.1 °C 52.3 °F /  11.3 °C 29.9in /  1013.5hPa Calm     95% 0in /  0.0mm 0 W/m2
05:28 53.8 °F /  12.1 °C 52.3 °F /  11.3 °C 29.9in /  1013.5hPa Calm     95% 0in /  0.0mm 0 W/m2
05:33 53.6 °F /  12 °C 52.2 °F /  11.2 °C 29.9in /  1013.5hPa Calm     95% 0in /  0.0mm 0 W/m2
05:38 53.4 °F /  11.9 °C 52 °F /  11.1 °C 29.9in /  1013.5hPa Calm     95% 0in /  0.0mm 0 W/m2
05:43 53.4 °F /  11.9 °C 52 °F /  11.1 °C 29.9in /  1013.5hPa Calm     95% 0in /  0.0mm 0 W/m2
05:48 53.6 °F /  12 °C 52.5 °F /  11.4 °C 29.9in /  1013.5hPa Calm     96% 0in /  0.0mm 0 W/m2
05:53 53.8 °F /  12.1 °C 52.7 °F /  11.5 °C 29.9in /  1013.5hPa Calm     96% 0in /  0.0mm 5 W/m2
05:58 53.6 °F /  12 °C 52.5 °F /  11.4 °C 29.9in /  1013.5hPa Calm     96% 0in /  0.0mm 5 W/m2
06:03 53.4 °F /  11.9 °C 52.3 °F /  11.3 °C 29.9in /  1013.5hPa Calm     96% 0in /  0.0mm 5 W/m2
06:08 53.6 °F /  12 °C 52.5 °F /  11.4 °C 29.9in /  1013.9hPa Calm     96% 0in /  0.0mm 7 W/m2
06:13 53.8 °F /  12.1 °C 52.7 °F /  11.5 °C 29.9in /  1013.9hPa Calm     96% 0in /  0.0mm 14 W/m2
06:18 54 °F /  12.2 °C 52.9 °F /  11.6 °C 29.9in /  1013.9hPa Calm     96% 0in /  0.0mm 19 W/m2
06:23 54 °F /  12.2 °C 52.9 °F /  11.6 °C 29.9in /  1013.9hPa Calm     96% 0in /  0.0mm 26 W/m2
06:28 54.1 °F /  12.3 °C 53.1 °F /  11.7 °C 30in /  1014.2hPa Calm     96% 0in /  0.0mm 37 W/m2
06:33 54.1 °F /  12.3 °C 53.1 °F /  11.7 °C 30in /  1014.2hPa Calm     96% 0in /  0.0mm 62 W/m2
06:38 54.5 °F /  12.5 °C 53.4 °F /  11.9 °C 30in /  1014.2hPa East 0.9mph /  1.4km/h 1mph /  1.6km/h 96% 0in /  0.0mm 76 W/m2
06:43 54.7 °F /  12.6 °C 53.6 °F /  12 °C 30in /  1014.2hPa Calm     96% 0in /  0.0mm 76 W/m2
06:48 55 °F /  12.8 °C 54 °F /  12.2 °C 30in /  1014.2hPa Calm   2mph /  3.2km/h 96% 0in /  0.0mm 65 W/m2
06:53 55 °F /  12.8 °C 54 °F /  12.2 °C 30in /  1014.2hPa ESE 0.9mph /  1.4km/h 1mph /  1.6km/h 96% 0in /  0.0mm 67 W/m2
06:58 55 °F /  12.8 °C 54 °F /  12.2 °C 30in /  1014.6hPa Calm     96% 0in /  0.0mm 58 W/m2
07:03 55.2 °F /  12.9 °C 54.1 °F /  12.3 °C 30in /  1014.2hPa Calm     96% 0in /  0.0mm 63 W/m2
07:08 55.2 °F /  12.9 °C 54.1 °F /  12.3 °C 30in /  1014.6hPa Calm   3mph /  4.8km/h 96% 0in /  0.0mm 79 W/m2
07:13 55.4 °F /  13 °C 54.3 °F /  12.4 °C 30in /  1014.6hPa Calm   2mph /  3.2km/h 96% 0in /  0.0mm 79 W/m2
07:18 55.6 °F /  13.1 °C 54.5 °F /  12.5 °C 30in /  1014.6hPa ENE 2.9mph /  4.7km/h 3mph /  4.8km/h 96% 0in /  0.0mm 51 W/m2
07:23 55.6 °F /  13.1 °C 54.5 °F /  12.5 °C 30in /  1014.6hPa East 2mph /  3.2km/h 2mph /  3.2km/h 96% 0in /  0.0mm 49 W/m2
07:28 55.8 °F /  13.2 °C 54.7 °F /  12.6 °C 30in /  1014.6hPa Calm     96% 0in /  0.0mm 51 W/m2
07:33 55.8 °F /  13.2 °C 54.7 °F /  12.6 °C 30in /  1014.6hPa ENE 0.9mph /  1.4km/h 2mph /  3.2km/h 96% 0in /  0.0mm 53 W/m2
07:38 55.9 °F /  13.3 °C 54.9 °F /  12.7 °C 30in /  1014.6hPa East 2mph /  3.2km/h 3mph /  4.8km/h 96% 0in /  0.0mm 51 W/m2
07:43 55.9 °F /  13.3 °C 54.9 °F /  12.7 °C 30in /  1014.6hPa East 0.9mph /  1.4km/h 2mph /  3.2km/h 96% 0in /  0.0mm 54 W/m2
07:48 56.3 °F /  13.5 °C 54.9 °F /  12.7 °C 30in /  1014.6hPa Calm   2mph /  3.2km/h 95% 0in /  0.0mm 83 W/m2
07:53 56.7 °F /  13.7 °C 55.6 °F /  13.1 °C 30in /  1014.6hPa ENE 2mph /  3.2km/h 3mph /  4.8km/h 96% 0in /  0.0mm 220 W/m2
07:58 57 °F /  13.9 °C 55.9 °F /  13.3 °C 30in /  1014.6hPa NNE 2.9mph /  4.7km/h 4mph /  6.4km/h 96% 0in /  0.0mm 236 W/m2
08:03 57.9 °F /  14.4 °C 56.5 °F /  13.6 °C 30in /  1014.6hPa East 2.9mph /  4.7km/h 3mph /  4.8km/h 95% 0in /  0.0mm 211 W/m2
08:08 58.6 °F /  14.8 °C 56.8 °F /  13.8 °C 30in /  1014.6hPa ESE 2mph /  3.2km/h 4mph /  6.4km/h 94% 0in /  0.0mm 220 W/m2
08:13 59.4 °F /  15.2 °C 57.4 °F /  14.1 °C 30in /  1014.6hPa North 2mph /  3.2km/h 3mph /  4.8km/h 93% 0in /  0.0mm 128 W/m2
08:18 60.1 °F /  15.6 °C 57.7 °F /  14.3 °C 30in /  1014.6hPa ESE 2.9mph /  4.7km/h 4mph /  6.4km/h 92% 0in /  0.0mm 56 W/m2
08:23 60.6 °F /  15.9 °C 57.7 °F /  14.3 °C 30in /  1014.9hPa NNE 0.9mph /  1.4km/h 2mph /  3.2km/h 90% 0in /  0.0mm 54 W/m2
08:28 61.2 °F /  16.2 °C 57.6 °F /  14.2 °C 30in /  1014.9hPa North 0.9mph /  1.4km/h 4mph /  6.4km/h 88% 0in /  0.0mm 53 W/m2
08:33 61.3 °F /  16.3 °C 57.4 °F /  14.1 °C 30in /  1014.9hPa ESE 2mph /  3.2km/h 3mph /  4.8km/h 87% 0in /  0.0mm 53 W/m2
08:38 61.9 °F /  16.6 °C 57.6 °F /  14.2 °C 30in /  1014.9hPa NE 0.9mph /  1.4km/h 3mph /  4.8km/h 86% 0in /  0.0mm 51 W/m2
08:43 62.2 °F /  16.8 °C 57.7 °F /  14.3 °C 30in /  1014.9hPa NNE 2.9mph /  4.7km/h 3mph /  4.8km/h 85% 0in /  0.0mm 53 W/m2
08:48 62.6 °F /  17 °C 58.1 °F /  14.5 °C 30in /  1014.9hPa NE 2.9mph /  4.7km/h 3mph /  4.8km/h 85% 0in /  0.0mm 60 W/m2
08:53 63.1 °F /  17.3 °C 58.6 °F /  14.8 °C 30in /  1014.9hPa NE 2.9mph /  4.7km/h 3mph /  4.8km/h 85% 0in /  0.0mm 67 W/m2
08:58 63.3 °F /  17.4 °C 58.5 °F /  14.7 °C 30in /  1014.9hPa NNE 2.9mph /  4.7km/h 3mph /  4.8km/h 84% 0in /  0.0mm 65 W/m2
09:03 63.7 °F /  17.6 °C 58.1 °F /  14.5 °C 30in /  1014.9hPa North 5mph /  8km/h 5mph /  8km/h 82% 0in /  0.0mm 58 W/m2
09:08 63.9 °F /  17.7 °C 58.6 °F /  14.8 °C 30in /  1014.9hPa ENE 0.9mph /  1.4km/h 4mph /  6.4km/h 83% 0in /  0.0mm 90 W/m2
09:13 64 °F /  17.8 °C 58.1 °F /  14.5 °C 30in /  1014.9hPa Calm   3mph /  4.8km/h 81% 0in /  0.0mm 244 W/m2
09:18 64 °F /  17.8 °C 58.1 °F /  14.5 °C 30in /  1014.9hPa NE 0.9mph /  1.4km/h 1mph /  1.6km/h 81% 0in /  0.0mm 455 W/m2
09:23 64.2 °F /  17.9 °C 58.3 °F /  14.6 °C 30in /  1014.9hPa NNW 0.9mph /  1.4km/h 3mph /  4.8km/h 81% 0in /  0.0mm 494 W/m2
09:28 64.4 °F /  18 °C 58.8 °F /  14.9 °C 30in /  1014.9hPa East 2.9mph /  4.7km/h 3mph /  4.8km/h 82% 0in /  0.0mm 508 W/m2
09:33 64.8 °F /  18.2 °C 58.5 °F /  14.7 °C 30in /  1014.9hPa WNW 2mph /  3.2km/h 4mph /  6.4km/h 80% 0in /  0.0mm 508 W/m2
09:38 64.9 °F /  18.3 °C 58.6 °F /  14.8 °C 30in /  1014.9hPa ESE 2mph /  3.2km/h 2mph /  3.2km/h 80% 0in /  0.0mm 519 W/m2
09:43 65.5 °F /  18.6 °C 58.8 °F /  14.9 °C 30in /  1014.9hPa North 2mph /  3.2km/h 3mph /  4.8km/h 79% 0in /  0.0mm 548 W/m2
09:48 65.7 °F /  18.7 °C 58.3 °F /  14.6 °C 30in /  1014.9hPa SE 2mph /  3.2km/h 3mph /  4.8km/h 77% 0in /  0.0mm 550 W/m2
09:53 66 °F /  18.9 °C 58.6 °F /  14.8 °C 30in /  1014.9hPa East 0.9mph /  1.4km/h 2mph /  3.2km/h 77% 0in /  0.0mm 554 W/m2
09:58 66.4 °F /  19.1 °C 58.3 °F /  14.6 °C 30in /  1014.9hPa NNE 0.9mph /  1.4km/h 2mph /  3.2km/h 75% 0in /  0.0mm 568 W/m2
10:03 66.7 °F /  19.3 °C 59 °F /  15 °C 30in /  1014.9hPa ENE 2mph /  3.2km/h 2mph /  3.2km/h 76% 0in /  0.0mm 578 W/m2
10:08 67.3 °F /  19.6 °C 59 °F /  15 °C 30in /  1014.9hPa NNE 2mph /  3.2km/h 3mph /  4.8km/h 75% 0in /  0.0mm 496 W/m2
10:13 67.8 °F /  19.9 °C 58.8 °F /  14.9 °C 30in /  1014.9hPa WNW 0.9mph /  1.4km/h 3mph /  4.8km/h 73% 0in /  0.0mm 121 W/m2
10:18 68.2 °F /  20.1 °C 59.5 °F /  15.3 °C 30in /  1014.9hPa ENE 4mph /  6.4km/h 6mph /  9.7km/h 74% 0in /  0.0mm 647 W/m2
10:23 68 °F /  20 °C 59.7 °F /  15.4 °C 30in /  1014.9hPa NE 2mph /  3.2km/h 3mph /  4.8km/h 75% 0in /  0.0mm 705 W/m2
10:28 68.2 °F /  20.1 °C 59.5 °F /  15.3 °C 30in /  1015.2hPa NE 0.9mph /  1.4km/h 2mph /  3.2km/h 74% 0in /  0.0mm 812 W/m2
10:33 68.5 °F /  20.3 °C 59.2 °F /  15.1 °C 30in /  1014.9hPa Calm   3mph /  4.8km/h 72% 0in /  0.0mm 921 W/m2
10:38 68.7 °F /  20.4 °C 59.4 °F /  15.2 °C 30in /  1015.2hPa ESE 0.9mph /  1.4km/h 3mph /  4.8km/h 72% 0in /  0.0mm 367 W/m2
10:43 69.1 °F /  20.6 °C 57.7 °F /  14.3 °C 30in /  1015.2hPa Calm   3mph /  4.8km/h 67% 0in /  0.0mm 397 W/m2
10:48 68.9 °F /  20.5 °C 57.9 °F /  14.4 °C 30in /  1015.2hPa WNW 2mph /  3.2km/h 3mph /  4.8km/h 68% 0in /  0.0mm 401 W/m2
10:53 68.7 °F /  20.4 °C 57.4 °F /  14.1 °C 30in /  1015.2hPa East 0.9mph /  1.4km/h 2mph /  3.2km/h 67% 0in /  0.0mm 338 W/m2
10:58 68.9 °F /  20.5 °C 57 °F /  13.9 °C 30in /  1015.2hPa Calm   3mph /  4.8km/h 66% 0in /  0.0mm 1000 W/m2
11:04 69.1 °F /  20.6 °C 56.8 °F /  13.8 °C 30in /  1015.2hPa Calm   2mph /  3.2km/h 65% 0in /  0.0mm 443 W/m2
11:09 69.3 °F /  20.7 °C 57 °F /  13.9 °C 30in /  1015.2hPa West 6mph /  9.7km/h 7mph /  11.3km/h 65% 0in /  0.0mm 789 W/m2
11:14 69.3 °F /  20.7 °C 57.4 °F /  14.1 °C 30in /  1015.2hPa WSW 4mph /  6.4km/h 4mph /  6.4km/h 66% 0in /  0.0mm 758 W/m2
11:19 69.1 °F /  20.6 °C 56.5 °F /  13.6 °C 30in /  1015.6hPa WNW 4mph /  6.4km/h 4mph /  6.4km/h 64% 0in /  0.0mm 766 W/m2
11:24 69.1 °F /  20.6 °C 55.9 °F /  13.3 °C 30in /  1015.6hPa West 6.9mph /  11.1km/h 7mph /  11.3km/h 63% 0in /  0.0mm 701 W/m2
11:29 69.3 °F /  20.7 °C 56.5 °F /  13.6 °C 30in /  1015.2hPa NW 0.9mph /  1.4km/h 5mph /  8km/h 64% 0in /  0.0mm 872 W/m2
11:34 69.3 °F /  20.7 °C 56.5 °F /  13.6 °C 30in /  1015.2hPa NW 0.9mph /  1.4km/h 8mph /  12.9km/h 64% 0in /  0.0mm 381 W/m2
11:39 69.1 °F /  20.6 °C 55.9 °F /  13.3 °C 30in /  1015.2hPa NW 2mph /  3.2km/h 5mph /  8km/h 63% 0in /  0.0mm 290 W/m2
11:44 69.1 °F /  20.6 °C 56.5 °F /  13.6 °C 30in /  1015.2hPa East 2.9mph /  4.7km/h 6mph /  9.7km/h 64% 0in /  0.0mm 301 W/m2
11:49 69.1 °F /  20.6 °C 56.8 °F /  13.8 °C 30in /  1015.2hPa WNW 2.9mph /  4.7km/h 3mph /  4.8km/h 65% 0in /  0.0mm 211 W/m2
11:54 69.3 °F /  20.7 °C 56.5 °F /  13.6 °C 30in /  1015.2hPa NE 2.9mph /  4.7km/h 4mph /  6.4km/h 64% 0in /  0.0mm 394 W/m2
11:59 69.6 °F /  20.9 °C 56.8 °F /  13.8 °C 30in /  1015.6hPa WNW 2.9mph /  4.7km/h 7mph /  11.3km/h 64% 0in /  0.0mm 904 W/m2
12:04 70 °F /  21.1 °C 56.8 °F /  13.8 °C 30in /  1015.2hPa NE 4mph /  6.4km/h 4mph /  6.4km/h 63% 0in /  0.0mm 967 W/m2
12:09 70.3 °F /  21.3 °C 58.5 °F /  14.7 °C 30in /  1015.2hPa West 4mph /  6.4km/h 8mph /  12.9km/h 66% 0in /  0.0mm 1048 W/m2
12:14 70.7 °F /  21.5 °C 56.7 °F /  13.7 °C 30in /  1015.2hPa NE 0.9mph /  1.4km/h 2mph /  3.2km/h 61% 0in /  0.0mm 352 W/m2
12:19 70.5 °F /  21.4 °C 56.8 °F /  13.8 °C 30in /  1015.2hPa WSW 2.9mph /  4.7km/h 8mph /  12.9km/h 62% 0in /  0.0mm 246 W/m2
12:24 69.8 °F /  21 °C 56.7 °F /  13.7 °C 30in /  1015.2hPa SSW 2.9mph /  4.7km/h 4mph /  6.4km/h 63% 0in /  0.0mm 348 W/m2
12:29 69.6 °F /  20.9 °C 56.5 °F /  13.6 °C 30in /  1015.2hPa NE 0.9mph /  1.4km/h 6mph /  9.7km/h 63% 0in /  0.0mm 708 W/m2
12:34 69.6 °F /  20.9 °C 56.8 °F /  13.8 °C 30in /  1015.6hPa WSW 4.9mph /  7.9km/h 7mph /  11.3km/h 64% 0in /  0.0mm 963 W/m2
12:39 69.8 °F /  21 °C 56.7 °F /  13.7 °C 30in /  1015.6hPa SW 0.9mph /  1.4km/h 2mph /  3.2km/h 63% 0in /  0.0mm 287 W/m2
12:44 70.2 °F /  21.2 °C 57 °F /  13.9 °C 30in /  1015.6hPa ENE 0.9mph /  1.4km/h 5mph /  8km/h 63% 0in /  0.0mm 353 W/m2
12:49 70.2 °F /  21.2 °C 56.5 °F /  13.6 °C 30in /  1015.6hPa West 2mph /  3.2km/h 3mph /  4.8km/h 62% 0in /  0.0mm 220 W/m2
12:54 70.2 °F /  21.2 °C 57.9 °F /  14.4 °C 30in /  1015.2hPa Calm   2mph /  3.2km/h 65% 0in /  0.0mm 260 W/m2
12:59 70.9 °F /  21.6 °C 57.2 °F /  14 °C 30in /  1015.2hPa SE 0.9mph /  1.4km/h 5mph /  8km/h 62% 0in /  0.0mm 1139 W/m2
13:04 71.8 °F /  22.1 °C 58.5 °F /  14.7 °C 30in /  1015.2hPa WSW 2mph /  3.2km/h 3mph /  4.8km/h 63% 0in /  0.0mm 1097 W/m2
13:09 72 °F /  22.2 °C 57.7 °F /  14.3 °C 30in /  1015.2hPa WNW 2mph /  3.2km/h 3mph /  4.8km/h 61% 0in /  0.0mm 424 W/m2
13:14 71.4 °F /  21.9 °C 55.9 °F /  13.3 °C 30in /  1015.6hPa WSW 4mph /  6.4km/h 6mph /  9.7km/h 58% 0in /  0.0mm 255 W/m2
13:19 70.9 °F /  21.6 °C 56.3 °F /  13.5 °C 30in /  1015.6hPa WNW 4mph /  6.4km/h 5mph /  8km/h 60% 0in /  0.0mm 227 W/m2
13:24 70.3 °F /  21.3 °C 55.8 °F /  13.2 °C 30in /  1015.6hPa WSW 0.9mph /  1.4km/h 7mph /  11.3km/h 60% 0in /  0.0mm 241 W/m2
13:29 70.3 °F /  21.3 °C 56.7 °F /  13.7 °C 30in /  1015.6hPa Calm   4mph /  6.4km/h 62% 0in /  0.0mm 1023 W/m2
13:34 71.1 °F /  21.7 °C 55.9 °F /  13.3 °C 30in /  1015.6hPa WSW 6.9mph /  11.1km/h 7mph /  11.3km/h 59% 0in /  0.0mm 1021 W/m2
13:39 72 °F /  22.2 °C 57.7 °F /  14.3 °C 30in /  1015.6hPa WNW 2mph /  3.2km/h 2mph /  3.2km/h 61% 0in /  0.0mm 1072 W/m2
13:44 72.7 °F /  22.6 °C 57 °F /  13.9 °C 30in /  1015.6hPa West 6.9mph /  11.1km/h 8mph /  12.9km/h 58% 0in /  0.0mm 1097 W/m2
13:49 72.3 °F /  22.4 °C 56.3 °F /  13.5 °C 30in /  1015.6hPa Calm   8mph /  12.9km/h 57% 0in /  0.0mm 1114 W/m2
13:54 72.9 °F /  22.7 °C 56.3 °F /  13.5 °C 30in /  1015.6hPa NE 2mph /  3.2km/h 10mph /  16.1km/h 56% 0in /  0.0mm 1049 W/m2
13:59 72.9 °F /  22.7 °C 56.7 °F /  13.7 °C 30in /  1015.6hPa NW 2mph /  3.2km/h 5mph /  8km/h 57% 0in /  0.0mm 534 W/m2
14:04 72.9 °F /  22.7 °C 56.7 °F /  13.7 °C 30in /  1015.6hPa WSW 4mph /  6.4km/h 11mph /  17.7km/h 57% 0in /  0.0mm 281 W/m2
14:09 72.9 °F /  22.7 °C 57.7 °F /  14.3 °C 30in /  1015.6hPa WNW 6mph /  9.7km/h 12mph /  19.3km/h 59% 0in /  0.0mm 287 W/m2
14:14 72.5 °F /  22.5 °C 56.5 °F /  13.6 °C 30in /  1015.6hPa WSW 4.9mph /  7.9km/h 7mph /  11.3km/h 57% 0in /  0.0mm 250 W/m2
14:19 72 °F /  22.2 °C 55.9 °F /  13.3 °C 30in /  1015.6hPa WSW 0.9mph /  1.4km/h 12mph /  19.3km/h 57% 0in /  0.0mm 223 W/m2
Juneau County Weather
Compliments of Weather Underground - 4 mb